sensor_id;sensor_type;location;lat;lon;timestamp;P1;durP1;ratioP1;P2;durP2;ratioP2
515;SDS011;244;48.508;9.052;2023-09-18T00:05:02;1.80;;;1.80;;
515;SDS011;244;48.508;9.052;2023-09-18T00:07:29;1.77;;;1.67;;
515;SDS011;244;48.508;9.052;2023-09-18T00:09:56;2.33;;;2.10;;
515;SDS011;244;48.508;9.052;2023-09-18T00:12:23;2.20;;;2.00;;
515;SDS011;244;48.508;9.052;2023-09-18T00:14:52;1.87;;;1.77;;
515;SDS011;244;48.508;9.052;2023-09-18T00:17:19;2.73;;;2.00;;
515;SDS011;244;48.508;9.052;2023-09-18T00:19:47;2.40;;;1.97;;
515;SDS011;244;48.508;9.052;2023-09-18T00:22:16;2.63;;;1.80;;
515;SDS011;244;48.508;9.052;2023-09-18T00:24:43;2.77;;;2.07;;
515;SDS011;244;48.508;9.052;2023-09-18T00:27:10;2.13;;;1.80;;
515;SDS011;244;48.508;9.052;2023-09-18T00:29:37;1.90;;;1.87;;
515;SDS011;244;48.508;9.052;2023-09-18T00:32:06;2.47;;;2.27;;
515;SDS011;244;48.508;9.052;2023-09-18T00:34:33;1.87;;;1.83;;
515;SDS011;244;48.508;9.052;2023-09-18T00:37:00;1.97;;;1.87;;
515;SDS011;244;48.508;9.052;2023-09-18T00:39:27;1.97;;;1.87;;
515;SDS011;244;48.508;9.052;2023-09-18T00:41:54;2.40;;;1.50;;
515;SDS011;244;48.508;9.052;2023-09-18T00:44:21;5.17;;;2.13;;
515;SDS011;244;48.508;9.052;2023-09-18T00:46:48;2.90;;;2.07;;
515;SDS011;244;48.508;9.052;2023-09-18T00:49:17;2.00;;;1.43;;
515;SDS011;244;48.508;9.052;2023-09-18T00:51:46;1.53;;;1.43;;
515;SDS011;244;48.508;9.052;2023-09-18T00:54:13;2.23;;;2.03;;
515;SDS011;244;48.508;9.052;2023-09-18T00:56:43;1.83;;;1.63;;
515;SDS011;244;48.508;9.052;2023-09-18T00:59:10;2.23;;;1.83;;
515;SDS011;244;48.508;9.052;2023-09-18T01:01:38;1.93;;;1.70;;
515;SDS011;244;48.508;9.052;2023-09-18T01:04:07;3.13;;;2.10;;
515;SDS011;244;48.508;9.052;2023-09-18T01:06:36;1.77;;;1.63;;
515;SDS011;244;48.508;9.052;2023-09-18T01:09:03;1.97;;;1.83;;
515;SDS011;244;48.508;9.052;2023-09-18T01:11:39;2.20;;;2.00;;
515;SDS011;244;48.508;9.052;2023-09-18T01:14:14;2.83;;;2.40;;
515;SDS011;244;48.508;9.052;2023-09-18T01:16:48;1.70;;;1.60;;
515;SDS011;244;48.508;9.052;2023-09-18T01:19:33;1.80;;;1.60;;
515;SDS011;244;48.508;9.052;2023-09-18T01:22:03;3.73;;;2.20;;
515;SDS011;244;48.508;9.052;2023-09-18T01:24:32;3.00;;;2.07;;
515;SDS011;244;48.508;9.052;2023-09-18T01:27:00;2.97;;;2.33;;
515;SDS011;244;48.508;9.052;2023-09-18T01:29:27;4.13;;;2.10;;
515;SDS011;244;48.508;9.052;2023-09-18T01:31:54;4.77;;;2.10;;
515;SDS011;244;48.508;9.052;2023-09-18T01:34:24;2.20;;;2.00;;
515;SDS011;244;48.508;9.052;2023-09-18T01:36:57;4.10;;;1.97;;
515;SDS011;244;48.508;9.052;2023-09-18T01:39:24;2.77;;;2.13;;
515;SDS011;244;48.508;9.052;2023-09-18T01:41:57;2.73;;;2.40;;
515;SDS011;244;48.508;9.052;2023-09-18T01:44:25;3.43;;;2.13;;
515;SDS011;244;48.508;9.052;2023-09-18T01:46:52;5.73;;;2.40;;
515;SDS011;244;48.508;9.052;2023-09-18T01:49:26;3.17;;;2.07;;
515;SDS011;244;48.508;9.052;2023-09-18T01:51:53;2.57;;;2.33;;
515;SDS011;244;48.508;9.052;2023-09-18T01:54:20;4.40;;;3.00;;
515;SDS011;244;48.508;9.052;2023-09-18T01:56:47;2.17;;;1.87;;
515;SDS011;244;48.508;9.052;2023-09-18T01:59:16;2.30;;;2.10;;
515;SDS011;244;48.508;9.052;2023-09-18T02:01:43;4.83;;;2.87;;
515;SDS011;244;48.508;9.052;2023-09-18T02:04:10;4.80;;;2.80;;
515;SDS011;244;48.508;9.052;2023-09-18T02:06:37;2.70;;;2.53;;
515;SDS011;244;48.508;9.052;2023-09-18T02:09:04;2.97;;;2.60;;
515;SDS011;244;48.508;9.052;2023-09-18T02:11:32;3.33;;;2.23;;
515;SDS011;244;48.508;9.052;2023-09-18T02:14:00;3.00;;;2.80;;
515;SDS011;244;48.508;9.052;2023-09-18T02:16:31;5.50;;;2.50;;
515;SDS011;244;48.508;9.052;2023-09-18T02:18:58;1.93;;;1.83;;
515;SDS011;244;48.508;9.052;2023-09-18T02:21:25;3.40;;;2.73;;
515;SDS011;244;48.508;9.052;2023-09-18T02:23:53;2.70;;;2.50;;
515;SDS011;244;48.508;9.052;2023-09-18T02:26:20;3.30;;;2.50;;
515;SDS011;244;48.508;9.052;2023-09-18T02:28:47;3.03;;;2.30;;
515;SDS011;244;48.508;9.052;2023-09-18T02:31:14;2.67;;;2.47;;
515;SDS011;244;48.508;9.052;2023-09-18T02:33:43;2.47;;;2.27;;
515;SDS011;244;48.508;9.052;2023-09-18T02:36:10;2.47;;;2.30;;
515;SDS011;244;48.508;9.052;2023-09-18T02:38:36;3.47;;;2.43;;
515;SDS011;244;48.508;9.052;2023-09-18T02:41:03;3.10;;;2.00;;
515;SDS011;244;48.508;9.052;2023-09-18T02:43:30;3.87;;;2.77;;
515;SDS011;244;48.508;9.052;2023-09-18T02:45:57;4.10;;;2.10;;
515;SDS011;244;48.508;9.052;2023-09-18T02:48:24;3.20;;;2.57;;
515;SDS011;244;48.508;9.052;2023-09-18T02:50:52;2.50;;;2.30;;
515;SDS011;244;48.508;9.052;2023-09-18T02:53:20;3.03;;;2.83;;
515;SDS011;244;48.508;9.052;2023-09-18T02:55:49;3.20;;;3.00;;
515;SDS011;244;48.508;9.052;2023-09-18T02:58:16;3.03;;;2.47;;
515;SDS011;244;48.508;9.052;2023-09-18T03:00:44;2.50;;;1.90;;
515;SDS011;244;48.508;9.052;2023-09-18T03:03:13;4.13;;;2.60;;
515;SDS011;244;48.508;9.052;2023-09-18T03:05:41;5.50;;;2.53;;
515;SDS011;244;48.508;9.052;2023-09-18T03:08:11;2.40;;;2.20;;
515;SDS011;244;48.508;9.052;2023-09-18T03:10:40;2.27;;;2.07;;
515;SDS011;244;48.508;9.052;2023-09-18T03:13:08;3.70;;;2.13;;
515;SDS011;244;48.508;9.052;2023-09-18T03:15:36;2.37;;;2.17;;
515;SDS011;244;48.508;9.052;2023-09-18T03:18:04;3.50;;;2.97;;
515;SDS011;244;48.508;9.052;2023-09-18T03:20:32;4.70;;;3.27;;
515;SDS011;244;48.508;9.052;2023-09-18T03:22:59;2.83;;;2.40;;
515;SDS011;244;48.508;9.052;2023-09-18T03:25:29;4.60;;;3.60;;
515;SDS011;244;48.508;9.052;2023-09-18T03:27:56;3.27;;;3.00;;
515;SDS011;244;48.508;9.052;2023-09-18T03:30:24;5.20;;;2.73;;
515;SDS011;244;48.508;9.052;2023-09-18T03:32:51;2.80;;;2.47;;
515;SDS011;244;48.508;9.052;2023-09-18T03:35:19;3.13;;;2.60;;
515;SDS011;244;48.508;9.052;2023-09-18T03:37:47;4.73;;;3.43;;
515;SDS011;244;48.508;9.052;2023-09-18T03:40:15;2.67;;;2.50;;
515;SDS011;244;48.508;9.052;2023-09-18T03:42:44;4.87;;;2.23;;
515;SDS011;244;48.508;9.052;2023-09-18T03:45:12;2.30;;;2.10;;
515;SDS011;244;48.508;9.052;2023-09-18T03:47:40;4.17;;;3.20;;
515;SDS011;244;48.508;9.052;2023-09-18T03:50:08;3.60;;;3.20;;
515;SDS011;244;48.508;9.052;2023-09-18T03:52:36;2.70;;;2.53;;
515;SDS011;244;48.508;9.052;2023-09-18T03:55:03;3.23;;;2.23;;
515;SDS011;244;48.508;9.052;2023-09-18T03:57:31;3.93;;;2.80;;
515;SDS011;244;48.508;9.052;2023-09-18T03:59:59;2.83;;;2.03;;
515;SDS011;244;48.508;9.052;2023-09-18T04:02:26;2.33;;;2.10;;
515;SDS011;244;48.508;9.052;2023-09-18T04:04:54;5.07;;;2.00;;
515;SDS011;244;48.508;9.052;2023-09-18T04:07:20;2.93;;;2.80;;
515;SDS011;244;48.508;9.052;2023-09-18T04:09:47;4.67;;;2.47;;
515;SDS011;244;48.508;9.052;2023-09-18T04:12:14;2.70;;;1.97;;
515;SDS011;244;48.508;9.052;2023-09-18T04:14:41;2.67;;;1.63;;
515;SDS011;244;48.508;9.052;2023-09-18T04:17:10;4.10;;;3.13;;
515;SDS011;244;48.508;9.052;2023-09-18T04:19:37;3.10;;;2.43;;
515;SDS011;244;48.508;9.052;2023-09-18T04:22:04;2.13;;;1.93;;
515;SDS011;244;48.508;9.052;2023-09-18T04:24:31;4.40;;;2.43;;
515;SDS011;244;48.508;9.052;2023-09-18T04:26:59;5.83;;;2.80;;
515;SDS011;244;48.508;9.052;2023-09-18T04:29:26;4.87;;;2.60;;
515;SDS011;244;48.508;9.052;2023-09-18T04:31:53;2.70;;;2.50;;
515;SDS011;244;48.508;9.052;2023-09-18T04:34:21;2.13;;;1.97;;
515;SDS011;244;48.508;9.052;2023-09-18T04:36:48;3.50;;;2.20;;
515;SDS011;244;48.508;9.052;2023-09-18T04:39:15;2.50;;;2.30;;
515;SDS011;244;48.508;9.052;2023-09-18T04:41:42;2.93;;;2.40;;
515;SDS011;244;48.508;9.052;2023-09-18T04:44:09;2.10;;;1.93;;
515;SDS011;244;48.508;9.052;2023-09-18T04:46:38;3.93;;;2.10;;
515;SDS011;244;48.508;9.052;2023-09-18T04:49:07;3.63;;;2.00;;
515;SDS011;244;48.508;9.052;2023-09-18T04:51:37;3.87;;;2.43;;
515;SDS011;244;48.508;9.052;2023-09-18T04:54:06;2.67;;;2.47;;
515;SDS011;244;48.508;9.052;2023-09-18T04:56:33;2.63;;;2.50;;
515;SDS011;244;48.508;9.052;2023-09-18T04:59:00;4.10;;;3.00;;
515;SDS011;244;48.508;9.052;2023-09-18T05:01:27;3.73;;;2.70;;
515;SDS011;244;48.508;9.052;2023-09-18T05:03:55;2.30;;;2.10;;
515;SDS011;244;48.508;9.052;2023-09-18T05:06:22;2.23;;;2.00;;
515;SDS011;244;48.508;9.052;2023-09-18T05:08:50;2.97;;;2.77;;
515;SDS011;244;48.508;9.052;2023-09-18T05:11:18;3.00;;;2.23;;
515;SDS011;244;48.508;9.052;2023-09-18T05:13:45;3.40;;;2.33;;
515;SDS011;244;48.508;9.052;2023-09-18T05:16:12;1.83;;;1.73;;
515;SDS011;244;48.508;9.052;2023-09-18T05:18:39;4.63;;;2.30;;
515;SDS011;244;48.508;9.052;2023-09-18T05:21:07;2.17;;;2.03;;
515;SDS011;244;48.508;9.052;2023-09-18T05:23:35;2.13;;;2.00;;
515;SDS011;244;48.508;9.052;2023-09-18T05:26:03;2.73;;;2.57;;
515;SDS011;244;48.508;9.052;2023-09-18T05:28:30;2.00;;;1.90;;
515;SDS011;244;48.508;9.052;2023-09-18T05:30:57;2.70;;;2.50;;
515;SDS011;244;48.508;9.052;2023-09-18T05:33:25;7.07;;;3.80;;
515;SDS011;244;48.508;9.052;2023-09-18T05:35:52;3.23;;;3.00;;
515;SDS011;244;48.508;9.052;2023-09-18T05:38:19;4.87;;;4.10;;
515;SDS011;244;48.508;9.052;2023-09-18T05:40:46;5.43;;;2.80;;
515;SDS011;244;48.508;9.052;2023-09-18T05:43:14;7.33;;;3.00;;
515;SDS011;244;48.508;9.052;2023-09-18T05:45:41;2.67;;;2.47;;
515;SDS011;244;48.508;9.052;2023-09-18T05:48:08;3.03;;;2.33;;
515;SDS011;244;48.508;9.052;2023-09-18T05:50:35;3.80;;;2.83;;
515;SDS011;244;48.508;9.052;2023-09-18T05:53:02;3.10;;;2.60;;
515;SDS011;244;48.508;9.052;2023-09-18T05:55:30;3.30;;;1.93;;
515;SDS011;244;48.508;9.052;2023-09-18T05:57:57;2.70;;;2.30;;
515;SDS011;244;48.508;9.052;2023-09-18T06:00:26;4.30;;;2.80;;
515;SDS011;244;48.508;9.052;2023-09-18T06:02:55;2.40;;;2.20;;
515;SDS011;244;48.508;9.052;2023-09-18T06:05:23;2.87;;;2.70;;
515;SDS011;244;48.508;9.052;2023-09-18T06:07:50;5.97;;;3.00;;
515;SDS011;244;48.508;9.052;2023-09-18T06:10:18;3.03;;;2.83;;
515;SDS011;244;48.508;9.052;2023-09-18T06:12:46;2.50;;;2.10;;
515;SDS011;244;48.508;9.052;2023-09-18T06:15:13;3.73;;;2.70;;
515;SDS011;244;48.508;9.052;2023-09-18T06:17:42;3.10;;;2.90;;
515;SDS011;244;48.508;9.052;2023-09-18T06:20:10;4.30;;;2.70;;
515;SDS011;244;48.508;9.052;2023-09-18T06:22:38;3.70;;;2.67;;
515;SDS011;244;48.508;9.052;2023-09-18T06:25:06;5.83;;;2.60;;
515;SDS011;244;48.508;9.052;2023-09-18T06:27:35;7.10;;;2.43;;
515;SDS011;244;48.508;9.052;2023-09-18T06:30:02;2.13;;;1.97;;
515;SDS011;244;48.508;9.052;2023-09-18T06:32:30;2.30;;;2.10;;
515;SDS011;244;48.508;9.052;2023-09-18T06:34:58;2.40;;;2.20;;
515;SDS011;244;48.508;9.052;2023-09-18T06:37:26;5.73;;;2.70;;
515;SDS011;244;48.508;9.052;2023-09-18T06:39:53;3.40;;;2.67;;
515;SDS011;244;48.508;9.052;2023-09-18T06:42:20;2.57;;;2.13;;
515;SDS011;244;48.508;9.052;2023-09-18T06:44:47;2.93;;;2.60;;
515;SDS011;244;48.508;9.052;2023-09-18T06:47:14;3.07;;;2.73;;
515;SDS011;244;48.508;9.052;2023-09-18T06:49:41;2.90;;;1.90;;
515;SDS011;244;48.508;9.052;2023-09-18T06:52:09;3.43;;;1.83;;
515;SDS011;244;48.508;9.052;2023-09-18T06:54:38;3.40;;;2.33;;
515;SDS011;244;48.508;9.052;2023-09-18T06:57:06;1.80;;;1.70;;
515;SDS011;244;48.508;9.052;2023-09-18T06:59:33;2.10;;;1.97;;
515;SDS011;244;48.508;9.052;2023-09-18T07:02:00;5.00;;;2.20;;
515;SDS011;244;48.508;9.052;2023-09-18T07:04:27;3.53;;;1.80;;
515;SDS011;244;48.508;9.052;2023-09-18T07:06:54;1.70;;;1.60;;
515;SDS011;244;48.508;9.052;2023-09-18T07:09:23;1.60;;;1.50;;
515;SDS011;244;48.508;9.052;2023-09-18T07:11:51;4.67;;;2.60;;
515;SDS011;244;48.508;9.052;2023-09-18T07:14:18;2.40;;;1.40;;
515;SDS011;244;48.508;9.052;2023-09-18T07:16:44;1.60;;;1.50;;
515;SDS011;244;48.508;9.052;2023-09-18T07:19:12;2.67;;;1.67;;
515;SDS011;244;48.508;9.052;2023-09-18T07:21:41;4.10;;;1.70;;
515;SDS011;244;48.508;9.052;2023-09-18T07:24:09;2.00;;;1.93;;
515;SDS011;244;48.508;9.052;2023-09-18T07:26:43;2.93;;;1.20;;
515;SDS011;244;48.508;9.052;2023-09-18T07:29:11;1.63;;;1.43;;
515;SDS011;244;48.508;9.052;2023-09-18T07:31:40;2.40;;;1.20;;
515;SDS011;244;48.508;9.052;2023-09-18T07:34:07;3.57;;;1.50;;
515;SDS011;244;48.508;9.052;2023-09-18T07:36:35;2.53;;;1.07;;
515;SDS011;244;48.508;9.052;2023-09-18T07:39:02;1.43;;;1.00;;
515;SDS011;244;48.508;9.052;2023-09-18T07:41:29;2.57;;;1.57;;
515;SDS011;244;48.508;9.052;2023-09-18T07:43:58;1.10;;;1.00;;
515;SDS011;244;48.508;9.052;2023-09-18T07:46:25;3.60;;;1.53;;
515;SDS011;244;48.508;9.052;2023-09-18T07:48:52;1.70;;;1.40;;
515;SDS011;244;48.508;9.052;2023-09-18T07:51:19;1.20;;;0.80;;
515;SDS011;244;48.508;9.052;2023-09-18T07:53:46;1.10;;;1.00;;
515;SDS011;244;48.508;9.052;2023-09-18T07:56:13;1.00;;;0.90;;
515;SDS011;244;48.508;9.052;2023-09-18T07:58:40;1.37;;;0.80;;
515;SDS011;244;48.508;9.052;2023-09-18T08:01:08;0.93;;;0.87;;
515;SDS011;244;48.508;9.052;2023-09-18T08:03:35;1.13;;;1.03;;
515;SDS011;244;48.508;9.052;2023-09-18T08:06:02;1.90;;;1.00;;
515;SDS011;244;48.508;9.052;2023-09-18T08:08:30;3.63;;;1.37;;
515;SDS011;244;48.508;9.052;2023-09-18T08:11:00;2.20;;;0.60;;
515;SDS011;244;48.508;9.052;2023-09-18T08:13:33;6.10;;;1.23;;
515;SDS011;244;48.508;9.052;2023-09-18T08:16:00;1.23;;;0.97;;
515;SDS011;244;48.508;9.052;2023-09-18T08:18:30;1.57;;;0.80;;
515;SDS011;244;48.508;9.052;2023-09-18T08:20:56;0.90;;;0.90;;
515;SDS011;244;48.508;9.052;2023-09-18T08:23:24;2.90;;;1.17;;
515;SDS011;244;48.508;9.052;2023-09-18T08:25:51;1.37;;;1.27;;
515;SDS011;244;48.508;9.052;2023-09-18T08:28:21;1.90;;;0.87;;
515;SDS011;244;48.508;9.052;2023-09-18T08:30:50;1.93;;;0.80;;
515;SDS011;244;48.508;9.052;2023-09-18T08:33:20;2.80;;;0.60;;
515;SDS011;244;48.508;9.052;2023-09-18T08:35:48;0.70;;;0.67;;
515;SDS011;244;48.508;9.052;2023-09-18T08:38:15;1.00;;;0.63;;
515;SDS011;244;48.508;9.052;2023-09-18T08:40:43;0.50;;;0.47;;
515;SDS011;244;48.508;9.052;2023-09-18T08:43:10;2.40;;;0.70;;
515;SDS011;244;48.508;9.052;2023-09-18T08:45:40;0.77;;;0.73;;
515;SDS011;244;48.508;9.052;2023-09-18T08:48:13;0.90;;;0.77;;
515;SDS011;244;48.508;9.052;2023-09-18T08:50:40;2.33;;;0.77;;
515;SDS011;244;48.508;9.052;2023-09-18T08:53:10;1.50;;;0.50;;
515;SDS011;244;48.508;9.052;2023-09-18T08:55:37;1.50;;;0.87;;
515;SDS011;244;48.508;9.052;2023-09-18T08:58:05;1.90;;;0.90;;
515;SDS011;244;48.508;9.052;2023-09-18T09:00:33;0.87;;;0.60;;
515;SDS011;244;48.508;9.052;2023-09-18T09:03:00;1.73;;;0.80;;
515;SDS011;244;48.508;9.052;2023-09-18T09:05:29;1.13;;;0.70;;
515;SDS011;244;48.508;9.052;2023-09-18T09:07:57;2.80;;;1.30;;
515;SDS011;244;48.508;9.052;2023-09-18T09:10:25;2.73;;;1.00;;
515;SDS011;244;48.508;9.052;2023-09-18T09:12:53;0.77;;;0.73;;
515;SDS011;244;48.508;9.052;2023-09-18T09:15:22;1.00;;;0.90;;
515;SDS011;244;48.508;9.052;2023-09-18T09:17:51;0.70;;;0.70;;
515;SDS011;244;48.508;9.052;2023-09-18T09:20:27;0.93;;;0.90;;
515;SDS011;244;48.508;9.052;2023-09-18T09:22:55;0.60;;;0.50;;
515;SDS011;244;48.508;9.052;2023-09-18T09:25:28;1.13;;;0.70;;
515;SDS011;244;48.508;9.052;2023-09-18T09:27:58;2.40;;;1.00;;
515;SDS011;244;48.508;9.052;2023-09-18T09:30:27;1.90;;;0.90;;
515;SDS011;244;48.508;9.052;2023-09-18T09:32:55;1.10;;;1.00;;
515;SDS011;244;48.508;9.052;2023-09-18T09:35:24;2.97;;;0.90;;
515;SDS011;244;48.508;9.052;2023-09-18T09:37:53;4.10;;;0.80;;
515;SDS011;244;48.508;9.052;2023-09-18T09:40:23;3.17;;;0.97;;
515;SDS011;244;48.508;9.052;2023-09-18T09:42:54;2.73;;;0.87;;
515;SDS011;244;48.508;9.052;2023-09-18T09:45:26;0.90;;;0.80;;
515;SDS011;244;48.508;9.052;2023-09-18T09:47:55;1.00;;;0.80;;
515;SDS011;244;48.508;9.052;2023-09-18T09:50:23;0.87;;;0.40;;
515;SDS011;244;48.508;9.052;2023-09-18T09:52:52;1.00;;;0.60;;
515;SDS011;244;48.508;9.052;2023-09-18T09:55:21;0.90;;;0.77;;
515;SDS011;244;48.508;9.052;2023-09-18T09:57:50;2.70;;;0.50;;
515;SDS011;244;48.508;9.052;2023-09-18T10:00:20;1.00;;;0.90;;
515;SDS011;244;48.508;9.052;2023-09-18T10:02:56;0.90;;;0.67;;
515;SDS011;244;48.508;9.052;2023-09-18T10:05:26;0.97;;;0.50;;
515;SDS011;244;48.508;9.052;2023-09-18T10:07:57;2.97;;;0.77;;
515;SDS011;244;48.508;9.052;2023-09-18T10:10:31;0.57;;;0.57;;
515;SDS011;244;48.508;9.052;2023-09-18T10:13:00;0.60;;;0.50;;
515;SDS011;244;48.508;9.052;2023-09-18T10:15:36;1.87;;;0.80;;
515;SDS011;244;48.508;9.052;2023-09-18T10:18:10;0.73;;;0.60;;
515;SDS011;244;48.508;9.052;2023-09-18T10:20:43;1.23;;;0.50;;
515;SDS011;244;48.508;9.052;2023-09-18T10:23:15;0.97;;;0.60;;
515;SDS011;244;48.508;9.052;2023-09-18T10:25:54;1.50;;;0.70;;
515;SDS011;244;48.508;9.052;2023-09-18T10:28:24;0.57;;;0.47;;
515;SDS011;244;48.508;9.052;2023-09-18T10:30:54;0.63;;;0.63;;
515;SDS011;244;48.508;9.052;2023-09-18T10:33:23;2.60;;;0.90;;
515;SDS011;244;48.508;9.052;2023-09-18T10:35:51;1.23;;;0.60;;
515;SDS011;244;48.508;9.052;2023-09-18T10:38:19;3.90;;;1.20;;
515;SDS011;244;48.508;9.052;2023-09-18T10:40:47;4.83;;;0.50;;
515;SDS011;244;48.508;9.052;2023-09-18T10:43:16;0.90;;;0.70;;
515;SDS011;244;48.508;9.052;2023-09-18T10:45:43;0.80;;;0.70;;
515;SDS011;244;48.508;9.052;2023-09-18T10:48:13;2.10;;;0.57;;
515;SDS011;244;48.508;9.052;2023-09-18T10:50:41;1.17;;;0.70;;
515;SDS011;244;48.508;9.052;2023-09-18T10:53:10;0.87;;;0.77;;
515;SDS011;244;48.508;9.052;2023-09-18T10:55:38;1.13;;;1.03;;
515;SDS011;244;48.508;9.052;2023-09-18T10:58:05;0.90;;;0.80;;
515;SDS011;244;48.508;9.052;2023-09-18T11:00:33;1.57;;;0.70;;
515;SDS011;244;48.508;9.052;2023-09-18T11:03:13;1.03;;;0.60;;
515;SDS011;244;48.508;9.052;2023-09-18T11:05:43;0.97;;;0.60;;
515;SDS011;244;48.508;9.052;2023-09-18T11:08:29;1.77;;;1.00;;
515;SDS011;244;48.508;9.052;2023-09-18T11:10:59;1.57;;;0.90;;
515;SDS011;244;48.508;9.052;2023-09-18T11:13:39;0.90;;;0.77;;
515;SDS011;244;48.508;9.052;2023-09-18T11:16:14;2.97;;;1.00;;
515;SDS011;244;48.508;9.052;2023-09-18T11:18:52;2.20;;;0.70;;
515;SDS011;244;48.508;9.052;2023-09-18T11:21:25;0.93;;;0.83;;
515;SDS011;244;48.508;9.052;2023-09-18T11:24:00;0.67;;;0.60;;
515;SDS011;244;48.508;9.052;2023-09-18T11:26:28;0.60;;;0.60;;
515;SDS011;244;48.508;9.052;2023-09-18T11:28:55;0.60;;;0.50;;
515;SDS011;244;48.508;9.052;2023-09-18T11:34:15;0.93;;;0.80;;
515;SDS011;244;48.508;9.052;2023-09-18T11:36:47;1.37;;;0.80;;
515;SDS011;244;48.508;9.052;2023-09-18T11:39:32;0.77;;;0.70;;
515;SDS011;244;48.508;9.052;2023-09-18T11:42:08;2.07;;;1.50;;
515;SDS011;244;48.508;9.052;2023-09-18T11:44:36;1.90;;;0.90;;
515;SDS011;244;48.508;9.052;2023-09-18T11:47:07;4.67;;;0.67;;
515;SDS011;244;48.508;9.052;2023-09-18T11:49:39;1.27;;;0.67;;
515;SDS011;244;48.508;9.052;2023-09-18T11:52:14;1.43;;;0.93;;
515;SDS011;244;48.508;9.052;2023-09-18T11:54:42;0.87;;;0.60;;
515;SDS011;244;48.508;9.052;2023-09-18T11:57:19;0.60;;;0.60;;
515;SDS011;244;48.508;9.052;2023-09-18T11:59:47;1.73;;;0.83;;
515;SDS011;244;48.508;9.052;2023-09-18T12:02:24;0.63;;;0.53;;
515;SDS011;244;48.508;9.052;2023-09-18T12:04:54;1.13;;;0.73;;
515;SDS011;244;48.508;9.052;2023-09-18T12:07:21;0.60;;;0.53;;
515;SDS011;244;48.508;9.052;2023-09-18T12:09:49;0.73;;;0.50;;
515;SDS011;244;48.508;9.052;2023-09-18T12:12:16;1.23;;;1.00;;
515;SDS011;244;48.508;9.052;2023-09-18T12:14:44;2.40;;;0.83;;
515;SDS011;244;48.508;9.052;2023-09-18T12:17:13;1.60;;;1.23;;
515;SDS011;244;48.508;9.052;2023-09-18T12:19:49;0.77;;;0.60;;
515;SDS011;244;48.508;9.052;2023-09-18T12:22:23;1.40;;;0.83;;
515;SDS011;244;48.508;9.052;2023-09-18T12:24:51;0.73;;;0.60;;
515;SDS011;244;48.508;9.052;2023-09-18T12:27:18;2.30;;;0.60;;
515;SDS011;244;48.508;9.052;2023-09-18T12:29:45;2.23;;;0.67;;
515;SDS011;244;48.508;9.052;2023-09-18T12:32:13;0.57;;;0.50;;
515;SDS011;244;48.508;9.052;2023-09-18T12:34:40;0.60;;;0.50;;
515;SDS011;244;48.508;9.052;2023-09-18T12:37:07;2.27;;;0.67;;
515;SDS011;244;48.508;9.052;2023-09-18T12:39:37;1.20;;;0.90;;
515;SDS011;244;48.508;9.052;2023-09-18T12:42:04;2.47;;;0.90;;
515;SDS011;244;48.508;9.052;2023-09-18T12:44:31;0.67;;;0.63;;
515;SDS011;244;48.508;9.052;2023-09-18T12:47:00;0.60;;;0.60;;
515;SDS011;244;48.508;9.052;2023-09-18T12:49:29;0.70;;;0.60;;
515;SDS011;244;48.508;9.052;2023-09-18T12:51:57;1.13;;;0.50;;
515;SDS011;244;48.508;9.052;2023-09-18T12:54:39;0.90;;;0.80;;
515;SDS011;244;48.508;9.052;2023-09-18T12:57:07;0.83;;;0.57;;
515;SDS011;244;48.508;9.052;2023-09-18T12:59:35;0.60;;;0.50;;
515;SDS011;244;48.508;9.052;2023-09-18T13:02:03;1.20;;;0.70;;
515;SDS011;244;48.508;9.052;2023-09-18T13:04:31;3.13;;;0.77;;
515;SDS011;244;48.508;9.052;2023-09-18T13:07:09;3.83;;;0.57;;
515;SDS011;244;48.508;9.052;2023-09-18T13:09:37;0.90;;;0.40;;
515;SDS011;244;48.508;9.052;2023-09-18T13:12:06;0.50;;;0.50;;
515;SDS011;244;48.508;9.052;2023-09-18T13:17:35;0.77;;;0.70;;
515;SDS011;244;48.508;9.052;2023-09-18T13:20:06;0.57;;;0.53;;
515;SDS011;244;48.508;9.052;2023-09-18T13:22:35;2.50;;;0.87;;
515;SDS011;244;48.508;9.052;2023-09-18T13:25:02;0.77;;;0.70;;
515;SDS011;244;48.508;9.052;2023-09-18T13:27:31;0.80;;;0.53;;
515;SDS011;244;48.508;9.052;2023-09-18T13:29:58;0.90;;;0.70;;
515;SDS011;244;48.508;9.052;2023-09-18T13:32:32;1.23;;;0.57;;
515;SDS011;244;48.508;9.052;2023-09-18T13:35:00;0.60;;;0.50;;
515;SDS011;244;48.508;9.052;2023-09-18T13:37:30;3.37;;;0.80;;
515;SDS011;244;48.508;9.052;2023-09-18T13:39:57;2.53;;;0.90;;
515;SDS011;244;48.508;9.052;2023-09-18T13:42:26;1.00;;;0.67;;
515;SDS011;244;48.508;9.052;2023-09-18T13:44:56;1.00;;;0.60;;
515;SDS011;244;48.508;9.052;2023-09-18T13:47:25;0.60;;;0.60;;
515;SDS011;244;48.508;9.052;2023-09-18T13:49:53;1.53;;;0.60;;
515;SDS011;244;48.508;9.052;2023-09-18T13:52:21;1.00;;;0.50;;
515;SDS011;244;48.508;9.052;2023-09-18T13:54:49;0.80;;;0.70;;
515;SDS011;244;48.508;9.052;2023-09-18T13:57:17;0.80;;;0.60;;
515;SDS011;244;48.508;9.052;2023-09-18T13:59:44;0.90;;;0.80;;
515;SDS011;244;48.508;9.052;2023-09-18T14:02:13;0.80;;;0.50;;
515;SDS011;244;48.508;9.052;2023-09-18T14:04:41;0.80;;;0.70;;
515;SDS011;244;48.508;9.052;2023-09-18T14:07:08;0.60;;;0.50;;
515;SDS011;244;48.508;9.052;2023-09-18T14:09:37;0.97;;;0.40;;
515;SDS011;244;48.508;9.052;2023-09-18T14:12:04;1.03;;;0.63;;
515;SDS011;244;48.508;9.052;2023-09-18T14:14:33;0.50;;;0.50;;
515;SDS011;244;48.508;9.052;2023-09-18T14:17:01;1.07;;;0.80;;
515;SDS011;244;48.508;9.052;2023-09-18T14:19:30;1.37;;;0.73;;
515;SDS011;244;48.508;9.052;2023-09-18T14:21:57;0.50;;;0.50;;
515;SDS011;244;48.508;9.052;2023-09-18T14:24:28;1.83;;;0.70;;
515;SDS011;244;48.508;9.052;2023-09-18T14:26:55;0.60;;;0.60;;
515;SDS011;244;48.508;9.052;2023-09-18T14:29:22;1.03;;;0.90;;
515;SDS011;244;48.508;9.052;2023-09-18T14:31:50;1.03;;;0.80;;
515;SDS011;244;48.508;9.052;2023-09-18T14:34:17;1.17;;;0.50;;
515;SDS011;244;48.508;9.052;2023-09-18T14:36:45;0.50;;;0.50;;
515;SDS011;244;48.508;9.052;2023-09-18T14:39:12;0.70;;;0.60;;
515;SDS011;244;48.508;9.052;2023-09-18T14:41:39;0.80;;;0.50;;
515;SDS011;244;48.508;9.052;2023-09-18T14:44:07;1.67;;;0.60;;
515;SDS011;244;48.508;9.052;2023-09-18T14:46:35;0.43;;;0.43;;
515;SDS011;244;48.508;9.052;2023-09-18T14:49:03;0.70;;;0.70;;
515;SDS011;244;48.508;9.052;2023-09-18T14:51:34;0.47;;;0.43;;
515;SDS011;244;48.508;9.052;2023-09-18T14:54:03;1.13;;;0.67;;
515;SDS011;244;48.508;9.052;2023-09-18T14:56:32;0.80;;;0.53;;
515;SDS011;244;48.508;9.052;2023-09-18T14:59:00;0.67;;;0.57;;
515;SDS011;244;48.508;9.052;2023-09-18T15:01:27;0.70;;;0.70;;
515;SDS011;244;48.508;9.052;2023-09-18T15:03:54;0.80;;;0.70;;
515;SDS011;244;48.508;9.052;2023-09-18T15:06:22;0.80;;;0.70;;
515;SDS011;244;48.508;9.052;2023-09-18T15:08:49;0.67;;;0.67;;
515;SDS011;244;48.508;9.052;2023-09-18T15:11:18;0.60;;;0.50;;
515;SDS011;244;48.508;9.052;2023-09-18T15:13:45;0.60;;;0.57;;
515;SDS011;244;48.508;9.052;2023-09-18T15:16:12;0.73;;;0.63;;
515;SDS011;244;48.508;9.052;2023-09-18T15:18:39;0.60;;;0.60;;
515;SDS011;244;48.508;9.052;2023-09-18T15:21:06;0.57;;;0.50;;
515;SDS011;244;48.508;9.052;2023-09-18T15:23:33;2.03;;;0.70;;
515;SDS011;244;48.508;9.052;2023-09-18T15:26:00;0.50;;;0.50;;
515;SDS011;244;48.508;9.052;2023-09-18T15:28:28;0.93;;;0.70;;
515;SDS011;244;48.508;9.052;2023-09-18T15:31:15;0.57;;;0.57;;
515;SDS011;244;48.508;9.052;2023-09-18T15:33:42;0.80;;;0.60;;
515;SDS011;244;48.508;9.052;2023-09-18T15:36:09;1.30;;;0.70;;
515;SDS011;244;48.508;9.052;2023-09-18T15:38:37;1.07;;;0.50;;
515;SDS011;244;48.508;9.052;2023-09-18T15:41:04;1.27;;;0.67;;
515;SDS011;244;48.508;9.052;2023-09-18T15:43:34;1.33;;;0.70;;
515;SDS011;244;48.508;9.052;2023-09-18T15:46:01;1.47;;;0.63;;
515;SDS011;244;48.508;9.052;2023-09-18T15:48:28;1.60;;;1.13;;
515;SDS011;244;48.508;9.052;2023-09-18T15:50:55;1.43;;;0.97;;
515;SDS011;244;48.508;9.052;2023-09-18T15:53:23;0.60;;;0.50;;
515;SDS011;244;48.508;9.052;2023-09-18T15:55:49;0.70;;;0.60;;
515;SDS011;244;48.508;9.052;2023-09-18T15:58:16;1.53;;;0.80;;
515;SDS011;244;48.508;9.052;2023-09-18T16:00:47;1.50;;;1.03;;
515;SDS011;244;48.508;9.052;2023-09-18T16:03:14;0.60;;;0.60;;